Ana Sayfa
METAR-TAF:

METAR-TAF

Havaalanları :

Broken Hill, Avustralya

Enlem: 32-00-06S, Boylam: 141-28-18E, yükseklik: 292 m

Güncel hava durumu gözlemi

Rapor saat 14:00 UTC de 1 saat ve 7 dakika önce yapıldı.
Rüzgar güney/güneydoğudan 5 kt
Sıcaklık 19°C
Nem 46%
Basınç 1016 hPa
Görüş mesafesi 10 km veya daha fazla

METAR: YBHI 281400Z AUTO 16005KT 9999 // NCD 19/07 Q1016

Saat: 01:37 (15:07 UTC)


TAF: eksik

4.000'den fazla havaalanı için hava durumu gözlemleri ve tahminleri (METAR ve TAF raporları).

Kullanılabilir istasyonlar harita üzerinde sarı ve kırmızı noktalarla gösterilir.

İstasyonun adını görmek için fareyi noktanın üzerinde gezdirin.

Sonrasında hava gözlem ve tahminlerini görmek için tıklayın.

Haritayı değiştirmek için: yaklaştırmak için siyah artı işaretli yeşil düğmeye ve uzaklaştırmak için de eksi işaretli düğmeye hızla tıklayın; bitişik haritalar için yeşil okları kullanın.


METAR-TAF: